createdAt,value
2018-08-17T00:01:53.904Z,19.19
2018-08-17T00:04:21.135Z,19.17
2018-08-17T00:06:48.400Z,19.15
2018-08-17T00:09:15.575Z,19.13
2018-08-17T00:11:42.758Z,19.15
2018-08-17T00:14:09.909Z,19.09
2018-08-17T00:16:37.466Z,18.99
2018-08-17T00:19:04.763Z,18.91
2018-08-17T00:21:31.983Z,18.82
2018-08-17T00:23:59.131Z,18.73
2018-08-17T00:26:26.355Z,18.64
2018-08-17T00:28:53.571Z,18.56
2018-08-17T00:31:20.892Z,18.50
2018-08-17T00:33:48.199Z,18.45
2018-08-17T00:36:15.314Z,18.39
2018-08-17T00:38:42.531Z,18.31
2018-08-17T00:41:09.773Z,18.27
2018-08-17T00:43:37.034Z,18.22
2018-08-17T00:46:04.227Z,18.10
2018-08-17T00:48:31.370Z,18.19
2018-08-17T00:50:58.499Z,18.14
2018-08-17T00:53:25.676Z,18.11
2018-08-17T00:55:52.938Z,18.14
2018-08-17T00:58:20.087Z,18.17
2018-08-17T01:00:47.238Z,18.20
2018-08-17T01:03:14.411Z,18.32
2018-08-17T01:05:41.578Z,18.35
2018-08-17T01:08:08.860Z,18.29
2018-08-17T01:10:36.116Z,18.32
2018-08-17T01:13:07.859Z,18.31
2018-08-17T01:15:35.090Z,18.27
2018-08-17T01:18:02.403Z,18.25
2018-08-17T01:20:29.637Z,18.22
2018-08-17T01:22:56.775Z,18.17
2018-08-17T01:25:23.946Z,18.23
2018-08-17T01:27:51.077Z,18.16
2018-08-17T01:30:18.264Z,18.17
2018-08-17T01:32:45.527Z,18.16
2018-08-17T01:35:12.651Z,18.20
2018-08-17T01:37:39.744Z,18.20
2018-08-17T01:40:06.922Z,18.21
2018-08-17T01:42:34.095Z,18.16
2018-08-17T01:45:01.334Z,18.15
2018-08-17T01:47:28.530Z,18.11
2018-08-17T01:49:55.660Z,18.04
2018-08-17T01:52:22.824Z,17.97
2018-08-17T01:54:50.052Z,18.02
2018-08-17T01:57:17.291Z,17.88
2018-08-17T01:59:44.420Z,17.85
2018-08-17T02:02:11.588Z,17.83
2018-08-17T02:04:38.733Z,17.84
2018-08-17T02:07:05.950Z,17.79
2018-08-17T02:09:33.201Z,17.80
2018-08-17T02:12:00.309Z,17.79
2018-08-17T02:14:27.543Z,17.73
2018-08-17T02:16:54.688Z,17.68
2018-08-17T02:19:21.905Z,17.67
2018-08-17T02:21:49.104Z,17.57
2018-08-17T02:24:16.264Z,17.53
2018-08-17T02:26:43.419Z,17.46
2018-08-17T02:29:10.555Z,17.47
2018-08-17T02:31:37.831Z,17.39
2018-08-17T02:34:05.071Z,17.37
2018-08-17T02:36:32.208Z,17.35
2018-08-17T02:38:59.377Z,17.38
2018-08-17T02:41:26.529Z,17.28
2018-08-17T02:43:54.777Z,17.23
2018-08-17T02:46:22.053Z,17.21
2018-08-17T02:48:49.192Z,17.09
2018-08-17T02:51:16.330Z,17.00
2018-08-17T02:53:43.502Z,16.91
2018-08-17T02:56:10.669Z,16.71
2018-08-17T02:58:37.866Z,16.66
2018-08-17T03:01:05.075Z,16.67
2018-08-17T03:03:32.194Z,16.68
2018-08-17T03:05:59.368Z,16.66
2018-08-17T03:08:26.568Z,16.66
2018-08-17T03:10:53.794Z,16.64
2018-08-17T03:13:23.047Z,16.57
2018-08-17T03:15:50.194Z,16.59
2018-08-17T03:18:17.309Z,16.54
2018-08-17T03:20:44.493Z,16.53
2018-08-17T03:23:11.810Z,16.56
2018-08-17T03:25:38.933Z,16.53
2018-08-17T03:28:06.356Z,16.56
2018-08-17T03:30:33.532Z,16.50
2018-08-17T03:33:00.687Z,16.46
2018-08-17T03:35:27.906Z,16.45
2018-08-17T03:37:55.063Z,16.43
2018-08-17T03:40:22.175Z,16.44
2018-08-17T03:42:49.604Z,16.42
2018-08-17T03:45:16.833Z,16.39
2018-08-17T03:47:44.026Z,16.37
2018-08-17T03:50:11.133Z,16.36
2018-08-17T03:52:38.292Z,16.39
2018-08-17T03:55:05.441Z,16.34
2018-08-17T03:57:32.636Z,16.35
2018-08-17T03:59:59.973Z,16.39
2018-08-17T04:02:27.104Z,16.45
2018-08-17T04:04:54.231Z,16.41
2018-08-17T04:07:21.441Z,16.40
2018-08-17T04:09:48.636Z,16.34
2018-08-17T04:12:15.838Z,16.36
2018-08-17T04:14:42.984Z,16.36
2018-08-17T04:17:14.902Z,16.46
2018-08-17T04:19:42.067Z,16.37
2018-08-17T04:22:09.291Z,16.32
2018-08-17T04:24:36.509Z,16.35
2018-08-17T04:27:03.728Z,16.36
2018-08-17T04:29:30.899Z,16.42
2018-08-17T04:31:58.018Z,16.42
2018-08-17T04:34:25.223Z,16.50
2018-08-17T04:36:52.508Z,16.56
2018-08-17T04:39:19.642Z,16.61
2018-08-17T04:41:46.848Z,16.68
2018-08-17T04:44:13.983Z,16.73
2018-08-17T04:46:41.200Z,16.81
2018-08-17T04:49:19.065Z,16.90
2018-08-17T04:51:46.249Z,16.94
2018-08-17T04:54:13.396Z,17.06
2018-08-17T04:56:40.635Z,17.12
2018-08-17T04:59:07.949Z,17.18
2018-08-17T05:01:35.192Z,17.30
2018-08-17T05:04:03.555Z,17.40
2018-08-17T05:06:30.755Z,17.48
2018-08-17T05:08:58.235Z,17.53
2018-08-17T05:11:25.626Z,17.61
2018-08-17T05:13:52.744Z,17.68
2018-08-17T05:16:20.524Z,17.77
2018-08-17T05:18:48.257Z,17.86
2018-08-17T05:21:15.447Z,17.96
2018-08-17T05:23:43.202Z,18.08
2018-08-17T05:26:11.277Z,18.16
2018-08-17T05:28:38.403Z,18.28
2018-08-17T05:31:05.679Z,18.43
2018-08-17T05:33:32.945Z,18.54
2018-08-17T05:36:00.383Z,18.65
2018-08-17T05:38:28.178Z,18.77
2018-08-17T05:40:55.385Z,18.91
2018-08-17T05:43:30.223Z,19.00
2018-08-17T05:45:57.548Z,19.10
2018-08-17T05:48:24.770Z,19.23
2018-08-17T05:50:51.910Z,19.33
2018-08-17T05:53:19.092Z,19.41
2018-08-17T05:55:46.256Z,19.56
2018-08-17T05:58:13.444Z,19.68
2018-08-17T06:00:40.708Z,19.84
2018-08-17T06:03:07.852Z,19.84
2018-08-17T06:05:35.007Z,19.96
2018-08-17T06:08:02.230Z,20.03
2018-08-17T06:10:29.427Z,20.12
2018-08-17T06:12:56.676Z,20.25
2018-08-17T06:15:25.935Z,20.40
2018-08-17T06:17:53.101Z,20.46
2018-08-17T06:20:20.232Z,20.55
2018-08-17T06:22:47.471Z,20.71
2018-08-17T06:25:14.752Z,20.85
2018-08-17T06:27:42.336Z,20.92
2018-08-17T06:30:12.295Z,20.98
2018-08-17T06:32:39.470Z,21.09
2018-08-17T06:35:08.192Z,21.19
2018-08-17T06:37:36.924Z,21.37
2018-08-17T06:40:04.472Z,21.51
2018-08-17T06:42:32.384Z,21.65
2018-08-17T06:44:59.584Z,21.76
2018-08-17T06:47:26.816Z,21.82
2018-08-17T06:49:54.101Z,21.97
2018-08-17T06:52:21.275Z,22.18
2018-08-17T06:54:48.680Z,22.32
2018-08-17T06:57:15.946Z,22.49
2018-08-17T06:59:43.220Z,22.67
2018-08-17T07:02:10.447Z,22.85
2018-08-17T07:04:37.753Z,22.81
2018-08-17T07:07:04.992Z,22.99
2018-08-17T07:09:33.145Z,23.07
2018-08-17T07:12:00.386Z,23.23
2018-08-17T07:14:27.623Z,23.40
2018-08-17T07:16:54.771Z,23.52
2018-08-17T07:19:22.004Z,23.64
2018-08-17T07:21:51.292Z,23.74
2018-08-17T07:24:18.498Z,23.89
2018-08-17T07:26:45.723Z,24.09
2018-08-17T07:29:12.943Z,24.19
2018-08-17T07:31:40.092Z,24.33
2018-08-17T07:34:07.308Z,24.41
2018-08-17T07:36:34.562Z,24.65
2018-08-17T07:39:01.744Z,24.89
2018-08-17T07:41:28.876Z,24.83
2018-08-17T07:43:56.176Z,25.07
2018-08-17T07:46:23.456Z,25.15
2018-08-17T07:48:50.655Z,25.34
2018-08-17T07:51:17.908Z,25.46
2018-08-17T07:53:45.044Z,25.57
2018-08-17T07:56:12.305Z,25.82
2018-08-17T07:58:39.491Z,26.00
2018-08-17T08:01:06.831Z,26.17
2018-08-17T08:03:34.007Z,26.36
2018-08-17T08:06:01.218Z,26.23
2018-08-17T08:08:28.344Z,26.31
2018-08-17T08:10:55.913Z,26.80
2018-08-17T08:13:23.139Z,26.63
2018-08-17T08:15:50.357Z,26.75
2018-08-17T08:18:17.509Z,26.95
2018-08-17T08:20:45.618Z,26.98
2018-08-17T08:23:20.170Z,27.38
2018-08-17T08:25:47.454Z,27.74
2018-08-17T08:28:14.674Z,27.19
2018-08-17T08:30:41.873Z,27.43
2018-08-17T08:33:09.146Z,27.86
2018-08-17T08:35:36.329Z,27.74
2018-08-17T08:38:03.523Z,28.09
2018-08-17T08:40:30.789Z,28.34
2018-08-17T08:42:57.958Z,28.57
2018-08-17T08:45:25.149Z,28.55
2018-08-17T08:47:52.347Z,28.84
2018-08-17T08:50:19.604Z,28.69
2018-08-17T08:52:46.827Z,28.99
2018-08-17T08:55:14.016Z,28.81
2018-08-17T08:57:41.135Z,29.30
2018-08-17T09:00:10.782Z,29.34
2018-08-17T09:02:38.447Z,29.41
2018-08-17T09:05:05.848Z,29.69
2018-08-17T09:07:33.031Z,29.81
2018-08-17T09:10:00.299Z,29.96
2018-08-17T09:12:27.451Z,30.18
2018-08-17T09:15:00.193Z,30.48
2018-08-17T09:17:27.498Z,30.40
2018-08-17T09:19:54.651Z,30.26
2018-08-17T09:22:21.847Z,30.18
2018-08-17T09:24:48.973Z,30.32
2018-08-17T09:27:16.225Z,29.92
2018-08-17T09:29:43.459Z,30.04
2018-08-17T09:32:10.616Z,30.43
2018-08-17T09:34:38.050Z,30.18
2018-08-17T09:37:05.352Z,30.73
2018-08-17T09:39:32.611Z,30.52
2018-08-17T09:41:59.842Z,31.08
2018-08-17T09:44:27.986Z,31.13
2018-08-17T09:46:55.536Z,31.54
2018-08-17T09:49:22.804Z,31.96
2018-08-17T09:51:50.160Z,32.33
2018-08-17T09:54:17.483Z,32.22
2018-08-17T09:56:44.631Z,32.30
2018-08-17T09:59:12.219Z,32.83
2018-08-17T10:01:45.148Z,32.42
2018-08-17T10:04:19.029Z,32.77
2018-08-17T10:06:52.136Z,32.64
2018-08-17T10:09:24.013Z,32.65
2018-08-17T10:11:51.841Z,32.88
2018-08-17T10:14:19.613Z,32.72
2018-08-17T10:16:47.179Z,32.73
2018-08-17T10:19:14.389Z,32.93
2018-08-17T10:21:47.816Z,32.71
2018-08-17T10:24:14.759Z,33.26
2018-08-17T10:26:43.500Z,32.92
2018-08-17T10:29:10.744Z,33.26
2018-08-17T10:31:37.910Z,33.43
2018-08-17T10:34:05.209Z,33.55
2018-08-17T10:36:32.355Z,34.18
2018-08-17T10:38:59.667Z,34.75
2018-08-17T10:41:27.098Z,33.98
2018-08-17T10:43:54.299Z,34.15
2018-08-17T10:46:21.472Z,34.01
2018-08-17T10:48:48.647Z,34.44
2018-08-17T10:51:15.850Z,34.26
2018-08-17T10:53:45.145Z,35.19
2018-08-17T10:56:12.291Z,35.36
2018-08-17T10:58:39.470Z,35.79
2018-08-17T11:01:06.592Z,35.96
2018-08-17T11:03:34.141Z,36.04
2018-08-17T11:06:01.460Z,35.95
2018-08-17T11:08:28.611Z,36.08
2018-08-17T11:10:56.013Z,36.20
2018-08-17T11:13:23.168Z,36.19
2018-08-17T11:15:50.383Z,36.63
2018-08-17T11:18:18.046Z,36.53
2018-08-17T11:20:45.239Z,36.69
2018-08-17T11:23:12.372Z,36.97
2018-08-17T11:25:39.463Z,37.25
2018-08-17T11:28:06.682Z,37.43
2018-08-17T11:30:33.884Z,37.83
2018-08-17T11:33:01.034Z,37.17
2018-08-17T11:35:28.203Z,37.15
2018-08-17T11:37:55.384Z,36.96
2018-08-17T11:40:22.583Z,36.54
2018-08-17T11:42:50.601Z,35.64
2018-08-17T11:45:22.247Z,35.54
2018-08-17T11:47:49.730Z,34.68
2018-08-17T11:50:18.612Z,34.92
2018-08-17T11:52:52.680Z,34.61
2018-08-17T11:55:21.206Z,34.84
2018-08-17T11:57:48.544Z,34.64
2018-08-17T12:00:18.728Z,34.75
2018-08-17T12:02:47.147Z,35.15
2018-08-17T12:05:14.296Z,34.97
2018-08-17T12:07:42.689Z,35.30
2018-08-17T12:10:09.839Z,35.49
2018-08-17T12:12:38.291Z,35.93
2018-08-17T12:15:06.918Z,36.03
2018-08-17T12:17:34.172Z,35.88
2018-08-17T12:20:01.537Z,35.53
2018-08-17T12:22:29.411Z,35.05
2018-08-17T12:24:56.541Z,34.79
2018-08-17T12:27:23.745Z,34.35
2018-08-17T12:29:50.940Z,33.73
2018-08-17T12:32:18.139Z,33.37
2018-08-17T12:34:45.255Z,33.31
2018-08-17T12:37:12.437Z,33.22
2018-08-17T12:39:39.632Z,33.34
2018-08-17T12:42:06.848Z,33.29
2018-08-17T12:44:34.091Z,33.11
2018-08-17T12:47:01.301Z,33.18
2018-08-17T12:49:28.450Z,33.33
2018-08-17T12:51:55.852Z,33.47
2018-08-17T12:54:28.691Z,33.32
2018-08-17T12:56:56.064Z,33.14
2018-08-17T12:59:23.230Z,33.47
2018-08-17T13:01:50.379Z,33.41
2018-08-17T13:04:17.598Z,33.36
2018-08-17T13:06:44.731Z,33.20
2018-08-17T13:09:12.022Z,33.14
2018-08-17T13:11:43.284Z,33.14
2018-08-17T13:14:11.884Z,33.30
2018-08-17T13:16:40.169Z,33.41
2018-08-17T13:19:07.661Z,33.53
2018-08-17T13:21:35.017Z,33.50
2018-08-17T13:24:02.145Z,33.52
2018-08-17T13:26:29.387Z,33.47
2018-08-17T13:28:56.611Z,33.46
2018-08-17T13:31:23.702Z,33.52
2018-08-17T13:33:50.929Z,33.33
2018-08-17T13:36:18.075Z,33.09
2018-08-17T13:38:45.209Z,32.84
2018-08-17T13:41:12.460Z,32.49
2018-08-17T13:43:39.627Z,32.52
2018-08-17T13:46:06.853Z,32.62
2018-08-17T13:48:34.060Z,32.83
2018-08-17T13:51:01.245Z,32.92
2018-08-17T13:53:28.412Z,32.97
2018-08-17T13:55:55.602Z,32.87
2018-08-17T13:58:22.908Z,32.50
2018-08-17T14:00:50.044Z,32.58
2018-08-17T14:03:17.223Z,32.53
2018-08-17T14:05:44.441Z,32.47
2018-08-17T14:08:11.616Z,32.73
2018-08-17T14:10:38.848Z,33.04
2018-08-17T14:13:05.996Z,33.09
2018-08-17T14:15:33.145Z,33.02
2018-08-17T14:18:00.412Z,33.10
2018-08-17T14:20:27.539Z,33.15
2018-08-17T14:22:54.744Z,33.35
2018-08-17T14:25:22.547Z,33.31
2018-08-17T14:27:49.656Z,33.37
2018-08-17T14:30:17.703Z,33.19
2018-08-17T14:32:44.951Z,33.47
2018-08-17T14:35:12.556Z,33.63
2018-08-17T14:37:39.707Z,33.65
2018-08-17T14:40:07.553Z,33.46
2018-08-17T14:42:34.732Z,33.16
2018-08-17T14:45:01.865Z,32.92
2018-08-17T14:47:29.119Z,32.77
2018-08-17T14:49:56.258Z,32.79
2018-08-17T14:52:23.397Z,33.07
2018-08-17T14:54:50.627Z,33.20
2018-08-17T14:57:17.751Z,33.36
2018-08-17T14:59:44.961Z,33.27
2018-08-17T15:02:12.137Z,33.15
2018-08-17T15:04:39.267Z,33.19
2018-08-17T15:07:06.441Z,33.16
2018-08-17T15:09:33.595Z,33.20
2018-08-17T15:12:00.820Z,33.29
2018-08-17T15:14:27.947Z,33.35
2018-08-17T15:16:55.116Z,33.19
2018-08-17T15:19:22.372Z,33.13
2018-08-17T15:21:49.575Z,33.05
2018-08-17T15:24:16.805Z,33.04
2018-08-17T15:26:44.029Z,33.03
2018-08-17T15:29:11.170Z,32.89
2018-08-17T15:31:38.427Z,32.88
2018-08-17T15:34:05.592Z,33.10
2018-08-17T15:36:32.879Z,33.08
2018-08-17T15:39:00.056Z,33.11
2018-08-17T15:41:27.293Z,33.13
2018-08-17T15:43:54.466Z,33.05
2018-08-17T15:46:21.677Z,32.83
2018-08-17T15:48:52.553Z,32.79
2018-08-17T15:51:19.775Z,32.63
2018-08-17T15:53:46.934Z,32.48
2018-08-17T15:56:14.151Z,32.51
2018-08-17T15:58:41.427Z,32.33
2018-08-17T16:01:08.912Z,32.20
2018-08-17T16:03:35.965Z,32.25
2018-08-17T16:06:03.123Z,32.14
2018-08-17T16:08:30.423Z,32.08
2018-08-17T16:10:57.492Z,32.08
2018-08-17T16:13:25.573Z,32.08
2018-08-17T16:15:52.840Z,32.03
2018-08-17T16:18:19.960Z,31.88
2018-08-17T16:20:47.167Z,31.82
2018-08-17T16:23:14.375Z,31.69
2018-08-17T16:25:41.567Z,31.60
2018-08-17T16:28:08.764Z,31.27
2018-08-17T16:30:35.932Z,31.00
2018-08-17T16:33:03.187Z,30.96
2018-08-17T16:35:30.357Z,30.77
2018-08-17T16:37:57.761Z,30.73
2018-08-17T16:40:24.935Z,30.69
2018-08-17T16:42:52.427Z,30.68
2018-08-17T16:45:19.674Z,30.60
2018-08-17T16:47:46.806Z,30.53
2018-08-17T16:50:14.019Z,30.44
2018-08-17T16:52:41.217Z,30.38
2018-08-17T16:55:08.446Z,30.30
2018-08-17T16:57:35.680Z,30.16
2018-08-17T17:00:03.531Z,29.96
2018-08-17T17:02:30.705Z,29.92
2018-08-17T17:04:57.859Z,29.81
2018-08-17T17:07:28.349Z,29.76
2018-08-17T17:09:55.623Z,29.73
2018-08-17T17:12:22.760Z,29.64
2018-08-17T17:14:50.047Z,29.56
2018-08-17T17:17:17.152Z,29.44
2018-08-17T17:19:44.297Z,29.19
2018-08-17T17:22:11.518Z,29.18
2018-08-17T17:24:38.915Z,29.08
2018-08-17T17:27:06.288Z,28.96
2018-08-17T17:29:34.784Z,28.77
2018-08-17T17:32:01.947Z,28.68
2018-08-17T17:34:29.265Z,28.64
2018-08-17T17:36:56.832Z,28.40
2018-08-17T17:39:24.108Z,28.29
2018-08-17T17:41:51.302Z,28.15
2018-08-17T17:44:18.455Z,28.06
2018-08-17T17:46:45.652Z,27.98
2018-08-17T17:49:12.788Z,27.90
2018-08-17T17:51:40.044Z,27.74
2018-08-17T17:54:07.248Z,27.56
2018-08-17T17:56:34.458Z,27.60
2018-08-17T17:59:06.580Z,27.42
2018-08-17T18:01:33.753Z,27.40
2018-08-17T18:04:00.932Z,27.29
2018-08-17T18:06:28.091Z,27.09
2018-08-17T18:08:57.856Z,27.10
2018-08-17T18:11:25.054Z,26.98
2018-08-17T18:13:52.212Z,26.88
2018-08-17T18:16:19.416Z,26.81
2018-08-17T18:18:46.526Z,26.78
2018-08-17T18:21:13.715Z,26.64
2018-08-17T18:23:40.917Z,26.59
2018-08-17T18:26:10.100Z,26.51
2018-08-17T18:28:37.360Z,26.47
2018-08-17T18:31:04.494Z,26.34
2018-08-17T18:33:31.721Z,26.30
2018-08-17T18:35:58.973Z,26.23
2018-08-17T18:38:26.097Z,26.05
2018-08-17T18:40:53.384Z,26.03
2018-08-17T18:43:20.544Z,25.94
2018-08-17T18:45:47.665Z,26.00
2018-08-17T18:48:14.884Z,25.93
2018-08-17T18:50:42.072Z,25.87
2018-08-17T18:53:09.300Z,25.85
2018-08-17T18:55:36.470Z,25.73
2018-08-17T18:58:03.646Z,25.67
2018-08-17T19:00:30.968Z,25.60
2018-08-17T19:02:58.507Z,25.54
2018-08-17T19:05:25.751Z,25.56
2018-08-17T19:07:52.886Z,25.39
2018-08-17T19:10:20.008Z,25.39
2018-08-17T19:12:47.296Z,25.26
2018-08-17T19:15:14.469Z,25.22
2018-08-17T19:17:41.860Z,25.18
2018-08-17T19:20:10.624Z,25.16
2018-08-17T19:22:39.745Z,25.12
2018-08-17T19:25:08.099Z,24.94
2018-08-17T19:27:37.912Z,24.89
2018-08-17T19:30:21.170Z,24.78
2018-08-17T19:32:48.423Z,24.80
2018-08-17T19:35:15.872Z,24.71
2018-08-17T19:37:43.085Z,24.60
2018-08-17T19:40:10.391Z,24.50
2018-08-17T19:42:37.538Z,24.49
2018-08-17T19:45:04.715Z,24.47
2018-08-17T19:47:32.001Z,24.39
2018-08-17T19:49:59.143Z,24.44
2018-08-17T19:52:26.350Z,24.42
2018-08-17T19:54:53.525Z,24.33
2018-08-17T19:57:20.653Z,24.29
2018-08-17T19:59:47.928Z,24.32
2018-08-17T20:02:15.091Z,24.32
2018-08-17T20:04:42.436Z,24.27
2018-08-17T20:07:09.632Z,24.29
2018-08-17T20:09:36.935Z,24.11
2018-08-17T20:12:04.211Z,24.11
2018-08-17T20:14:31.656Z,24.06
2018-08-17T20:16:58.974Z,23.96
2018-08-17T20:19:34.605Z,23.90
2018-08-17T20:22:02.009Z,23.92
2018-08-17T20:24:29.251Z,23.78
2018-08-17T20:26:57.476Z,23.70
2018-08-17T20:29:24.796Z,23.65
2018-08-17T20:31:51.943Z,23.60
2018-08-17T20:34:19.093Z,23.52
2018-08-17T20:36:46.399Z,23.54
2018-08-17T20:39:13.626Z,23.48
2018-08-17T20:41:45.324Z,23.38
2018-08-17T20:44:12.499Z,23.30
2018-08-17T20:46:42.439Z,23.28
2018-08-17T20:49:11.766Z,23.19
2018-08-17T20:51:44.736Z,23.15
2018-08-17T20:54:11.904Z,23.07
2018-08-17T20:56:39.048Z,23.10
2018-08-17T20:59:06.180Z,23.04
2018-08-17T21:01:33.421Z,23.05
2018-08-17T21:04:00.591Z,22.98
2018-08-17T21:06:27.784Z,22.94
2018-08-17T21:08:54.980Z,23.00
2018-08-17T21:11:22.119Z,22.95
2018-08-17T21:13:49.412Z,22.93
2018-08-17T21:16:16.746Z,22.77
2018-08-17T21:18:43.884Z,22.88
2018-08-17T21:21:11.012Z,22.71
2018-08-17T21:23:38.199Z,22.83
2018-08-17T21:26:05.444Z,22.69
2018-08-17T21:28:32.669Z,22.77
2018-08-17T21:30:59.934Z,22.76
2018-08-17T21:33:27.065Z,22.63
2018-08-17T21:35:54.240Z,22.64
2018-08-17T21:38:21.574Z,22.49
2018-08-17T21:40:48.832Z,22.51
2018-08-17T21:43:16.700Z,22.43
2018-08-17T21:45:44.667Z,22.36
2018-08-17T21:48:17.556Z,22.32
2018-08-17T21:50:44.793Z,22.35
2018-08-17T21:53:12.033Z,22.39
2018-08-17T21:55:39.174Z,22.29
2018-08-17T21:58:06.356Z,22.17
2018-08-17T22:00:33.711Z,22.23
2018-08-17T22:03:00.975Z,22.22
2018-08-17T22:05:34.916Z,22.08
2018-08-17T22:08:02.246Z,22.01
2018-08-17T22:10:29.933Z,21.98
2018-08-17T22:12:57.095Z,22.02
2018-08-17T22:15:25.679Z,21.99
2018-08-17T22:17:52.900Z,21.93
2018-08-17T22:20:20.126Z,21.83
2018-08-17T22:22:47.248Z,21.76
2018-08-17T22:25:16.782Z,21.84
2018-08-17T22:27:44.076Z,21.83
2018-08-17T22:30:21.955Z,21.87
2018-08-17T22:32:49.228Z,21.79
2018-08-17T22:35:16.564Z,21.68
2018-08-17T22:37:43.646Z,21.68
2018-08-17T22:40:10.915Z,21.56
2018-08-17T22:42:38.140Z,21.52
2018-08-17T22:45:05.703Z,21.47
2018-08-17T22:47:32.860Z,21.46
2018-08-17T22:50:00.803Z,21.49
2018-08-17T22:52:31.547Z,21.43
2018-08-17T22:54:59.887Z,21.45
2018-08-17T22:57:27.711Z,21.43
2018-08-17T23:00:11.285Z,21.29
2018-08-17T23:02:39.440Z,21.41
2018-08-17T23:05:08.668Z,21.31
2018-08-17T23:07:35.937Z,21.24
2018-08-17T23:10:03.967Z,21.17
2018-08-17T23:12:31.162Z,21.20
2018-08-17T23:14:58.460Z,21.19
2018-08-17T23:17:25.580Z,21.13
2018-08-17T23:19:52.698Z,21.07
2018-08-17T23:22:19.867Z,21.14
2018-08-17T23:24:47.177Z,21.07
2018-08-17T23:27:14.350Z,21.05
2018-08-17T23:29:41.728Z,20.93
2018-08-17T23:32:08.877Z,20.98
2018-08-17T23:34:36.006Z,20.92
2018-08-17T23:37:03.519Z,20.90
2018-08-17T23:39:30.744Z,20.78
2018-08-17T23:41:57.879Z,20.76
2018-08-17T23:44:25.037Z,20.80
2018-08-17T23:46:52.184Z,20.71
2018-08-17T23:49:19.401Z,20.67
2018-08-17T23:51:46.689Z,20.58
2018-08-17T23:54:13.817Z,20.59
2018-08-17T23:56:40.927Z,20.67
2018-08-17T23:59:08.088Z,20.58
